CRF1218 MUHA-MMUN
Flight info
| Callsign | CRF1218 |
|---|---|
| Flight time | 1h 2m |
| Altitude | 32000 |
| Route | EPMAR4A MUPKI UB879 NOSAT NOSAT1B |
| Aircraft | B733/M-SDE2E3FHIRW/S |
Departure
| Time | 2026-04-27 19:35 |
|---|---|
| Airport | José Martí International Airport (MUHA) |
Arrival
| Time | 2026-04-27 20:38 |
|---|---|
| Airport | Cancún International Airport (MMUN) |
| Time | Latitude | Longitude | Altitude | Speed | Heading |
|---|---|---|---|---|---|
| 2026-04-27 19:16 | 22.99984 | -82.39883 | 219 ft | 0 kts | 324° |
| 2026-04-27 19:19 | 22.99976 | -82.39877 | 219 ft | 2 kts | 324° |
| 2026-04-27 19:20 | 22.99961 | -82.39866 | 219 ft | 3 kts | 324° |
| 2026-04-27 19:20 | 22.99948 | -82.39851 | 219 ft | 3 kts | 287° |
| 2026-04-27 19:20 | 22.99953 | -82.39831 | 219 ft | 3 kts | 234° |
| 2026-04-27 19:20 | 22.99955 | -82.39829 | 219 ft | 0 kts | 234° |
| 2026-04-27 19:23 | 22.99942 | -82.39849 | 219 ft | 8 kts | 237° |
| 2026-04-27 19:23 | 22.99913 | -82.39894 | 219 ft | 7 kts | 234° |
| 2026-04-27 19:24 | 22.99888 | -82.39932 | 219 ft | 6 kts | 234° |
| 2026-04-27 19:24 | 22.99866 | -82.39965 | 219 ft | 5 kts | 234° |
| 2026-04-27 19:24 | 22.99846 | -82.39994 | 219 ft | 5 kts | 234° |
| 2026-04-27 19:24 | 22.99829 | -82.40021 | 219 ft | 4 kts | 234° |
| 2026-04-27 19:25 | 22.99809 | -82.40044 | 219 ft | 4 kts | 212° |
| 2026-04-27 19:25 | 22.99780 | -82.40052 | 219 ft | 5 kts | 185° |
| 2026-04-27 19:25 | 22.99746 | -82.40055 | 219 ft | 5 kts | 185° |
| 2026-04-27 19:25 | 22.99715 | -82.40062 | 219 ft | 4 kts | 201° |
| 2026-04-27 19:26 | 22.99686 | -82.40079 | 219 ft | 5 kts | 214° |
| 2026-04-27 19:26 | 22.99661 | -82.40109 | 219 ft | 6 kts | 233° |
| 2026-04-27 19:26 | 22.99633 | -82.40150 | 219 ft | 8 kts | 233° |
| 2026-04-27 19:26 | 22.99598 | -82.40203 | 219 ft | 10 kts | 234° |
| 2026-04-27 19:27 | 22.99555 | -82.40267 | 219 ft | 11 kts | 234° |
| 2026-04-27 19:27 | 22.99505 | -82.40341 | 219 ft | 13 kts | 234° |
| 2026-04-27 19:27 | 22.99449 | -82.40425 | 219 ft | 14 kts | 234° |
| 2026-04-27 19:27 | 22.99390 | -82.40514 | 219 ft | 15 kts | 234° |
| 2026-04-27 19:28 | 22.99328 | -82.40606 | 219 ft | 15 kts | 234° |
| 2026-04-27 19:28 | 22.99264 | -82.40702 | 219 ft | 16 kts | 234° |
| 2026-04-27 19:28 | 22.99198 | -82.40801 | 219 ft | 17 kts | 234° |
| 2026-04-27 19:28 | 22.99129 | -82.40904 | 219 ft | 17 kts | 234° |
| 2026-04-27 19:29 | 22.99060 | -82.41010 | 219 ft | 18 kts | 233° |
| 2026-04-27 19:29 | 22.98987 | -82.41117 | 219 ft | 18 kts | 234° |
| 2026-04-27 19:29 | 22.98913 | -82.41228 | 219 ft | 18 kts | 234° |
| 2026-04-27 19:29 | 22.98839 | -82.41340 | 219 ft | 19 kts | 234° |
| 2026-04-27 19:30 | 22.98802 | -82.41437 | 219 ft | 8 kts | 270° |
| 2026-04-27 19:30 | 22.98792 | -82.41458 | 219 ft | 3 kts | 220° |
| 2026-04-27 19:30 | 22.98720 | -82.41524 | 219 ft | 19 kts | 229° |
| 2026-04-27 19:30 | 22.98645 | -82.41630 | 219 ft | 17 kts | 233° |
| 2026-04-27 19:31 | 22.98581 | -82.41725 | 219 ft | 15 kts | 234° |
| 2026-04-27 19:31 | 22.98523 | -82.41811 | 219 ft | 13 kts | 234° |
| 2026-04-27 19:31 | 22.98469 | -82.41893 | 219 ft | 13 kts | 234° |
| 2026-04-27 19:31 | 22.98415 | -82.41973 | 219 ft | 13 kts | 234° |
| 2026-04-27 19:32 | 22.98370 | -82.42051 | 219 ft | 10 kts | 236° |
| 2026-04-27 19:32 | 22.98324 | -82.42111 | 219 ft | 10 kts | 232° |
| 2026-04-27 19:32 | 22.98281 | -82.42174 | 219 ft | 10 kts | 234° |
| 2026-04-27 19:32 | 22.98239 | -82.42238 | 219 ft | 11 kts | 234° |
| 2026-04-27 19:33 | 22.98194 | -82.42305 | 219 ft | 12 kts | 233° |
| 2026-04-27 19:33 | 22.98161 | -82.42354 | 219 ft | 12 kts | 234° |
| 2026-04-27 19:33 | 22.98090 | -82.42460 | 219 ft | 14 kts | 234° |
| 2026-04-27 19:33 | 22.98027 | -82.42530 | 219 ft | 13 kts | 195° |
| 2026-04-27 19:34 | 22.97945 | -82.42494 | 219 ft | 14 kts | 143° |
| 2026-04-27 19:34 | 22.97904 | -82.42421 | 219 ft | 12 kts | 61° |
| 2026-04-27 19:34 | 22.97956 | -82.42341 | 219 ft | 22 kts | 54° |
| 2026-04-27 19:34 | 22.98154 | -82.42046 | 219 ft | 74 kts | 54° |
| 2026-04-27 19:35 | 22.98551 | -82.41451 | 219 ft | 119 kts | 53° |
| 2026-04-27 19:35 | 22.99121 | -82.40609 | 232 ft | 156 kts | 50° |
| 2026-04-27 19:35 | 22.99797 | -82.39645 | 665 ft | 162 kts | 51° |
| 2026-04-27 19:35 | 23.00481 | -82.38720 | 1389 ft | 152 kts | 49° |
| 2026-04-27 19:36 | 23.01085 | -82.37815 | 2010 ft | 150 kts | 58° |
| 2026-04-27 19:36 | 23.01698 | -82.36837 | 2340 ft | 165 kts | 52° |
| 2026-04-27 19:36 | 23.02555 | -82.35911 | 2632 ft | 184 kts | 44° |
| 2026-04-27 19:36 | 23.03448 | -82.34848 | 2904 ft | 201 kts | 56° |
| 2026-04-27 19:37 | 23.04294 | -82.33542 | 3175 ft | 223 kts | 58° |
| 2026-04-27 19:37 | 23.05207 | -82.32083 | 3470 ft | 245 kts | 58° |
| 2026-04-27 19:37 | 23.06198 | -82.30517 | 3929 ft | 257 kts | 54° |
| 2026-04-27 19:37 | 23.07545 | -82.29216 | 4536 ft | 265 kts | 32° |
| 2026-04-27 19:38 | 23.09027 | -82.28018 | 5116 ft | 271 kts | 52° |
| 2026-04-27 19:38 | 23.09579 | -82.26111 | 5821 ft | 268 kts | 88° |
| 2026-04-27 19:38 | 23.09740 | -82.24080 | 6455 ft | 273 kts | 77° |
| 2026-04-27 19:38 | 23.10386 | -82.22149 | 7104 ft | 275 kts | 62° |
| 2026-04-27 19:39 | 23.11459 | -82.20431 | 7745 ft | 277 kts | 50° |
| 2026-04-27 19:39 | 23.12921 | -82.19075 | 8326 ft | 281 kts | 26° |
| 2026-04-27 19:39 | 23.14816 | -82.18702 | 8931 ft | 282 kts | 354° |
| 2026-04-27 19:39 | 23.16650 | -82.19403 | 9520 ft | 284 kts | 328° |
| 2026-04-27 19:40 | 23.18371 | -82.20448 | 10087 ft | 286 kts | 339° |
| 2026-04-27 19:40 | 23.20314 | -82.21062 | 10420 ft | 299 kts | 347° |
| 2026-04-27 19:40 | 23.22386 | -82.21558 | 10673 ft | 313 kts | 343° |
| 2026-04-27 19:40 | 23.24419 | -82.22553 | 10738 ft | 332 kts | 327° |
| 2026-04-27 19:41 | 23.26195 | -82.24246 | 10768 ft | 352 kts | 309° |
| 2026-04-27 19:41 | 23.27456 | -82.26587 | 10798 ft | 371 kts | 291° |
| 2026-04-27 19:41 | 23.27888 | -82.29366 | 11231 ft | 377 kts | 269° |
| 2026-04-27 19:41 | 23.27113 | -82.32071 | 11250 ft | 397 kts | 232° |
| 2026-04-27 19:42 | 23.24798 | -82.33794 | 11375 ft | 408 kts | 201° |
| 2026-04-27 19:42 | 23.21981 | -82.34045 | 12013 ft | 404 kts | 178° |
| 2026-04-27 19:42 | 23.19256 | -82.34001 | 12261 ft | 395 kts | 186° |
| 2026-04-27 19:42 | 23.16566 | -82.34540 | 12835 ft | 393 kts | 198° |
| 2026-04-27 19:43 | 23.14149 | -82.35853 | 13355 ft | 390 kts | 219° |
| 2026-04-27 19:43 | 23.12358 | -82.38018 | 13869 ft | 387 kts | 240° |
| 2026-04-27 19:43 | 23.11417 | -82.40728 | 14396 ft | 385 kts | 257° |
| 2026-04-27 19:43 | 23.10894 | -82.43584 | 14875 ft | 388 kts | 260° |
| 2026-04-27 19:44 | 23.10539 | -82.46488 | 15319 ft | 391 kts | 270° |
| 2026-04-27 19:44 | 23.10588 | -82.49428 | 15808 ft | 392 kts | 267° |
| 2026-04-27 19:44 | 23.10004 | -82.52309 | 16262 ft | 394 kts | 252° |
| 2026-04-27 19:44 | 23.09206 | -82.55152 | 16744 ft | 395 kts | 256° |
| 2026-04-27 19:45 | 23.08522 | -82.58039 | 17173 ft | 397 kts | 257° |
| 2026-04-27 19:45 | 23.07849 | -82.60947 | 17602 ft | 399 kts | 257° |
| 2026-04-27 19:45 | 23.07278 | -82.63891 | 18023 ft | 400 kts | 259° |
| 2026-04-27 19:45 | 23.06704 | -82.66848 | 18434 ft | 402 kts | 259° |
| 2026-04-27 19:46 | 23.06134 | -82.69819 | 18835 ft | 404 kts | 259° |
| 2026-04-27 19:46 | 23.05585 | -82.72807 | 19228 ft | 406 kts | 259° |
| 2026-04-27 19:46 | 23.05034 | -82.75810 | 19622 ft | 407 kts | 259° |
| 2026-04-27 19:46 | 23.04480 | -82.78820 | 20005 ft | 409 kts | 259° |
| 2026-04-27 19:47 | 23.03924 | -82.81843 | 20378 ft | 410 kts | 259° |
| 2026-04-27 19:47 | 23.03364 | -82.84875 | 20739 ft | 411 kts | 259° |
| 2026-04-27 19:47 | 23.02802 | -82.87915 | 21088 ft | 413 kts | 259° |
| 2026-04-27 19:47 | 23.02237 | -82.90968 | 21422 ft | 414 kts | 259° |
| 2026-04-27 19:48 | 23.01670 | -82.94030 | 21741 ft | 415 kts | 259° |
| 2026-04-27 19:48 | 23.01100 | -82.97097 | 22047 ft | 417 kts | 259° |
| 2026-04-27 19:48 | 23.00527 | -83.00180 | 22336 ft | 418 kts | 259° |
| 2026-04-27 19:48 | 22.99953 | -83.03267 | 22619 ft | 419 kts | 259° |
| 2026-04-27 19:49 | 22.99375 | -83.06366 | 22888 ft | 421 kts | 259° |
| 2026-04-27 19:49 | 22.98795 | -83.09474 | 23149 ft | 422 kts | 259° |
| 2026-04-27 19:49 | 22.98213 | -83.12588 | 23397 ft | 423 kts | 259° |
| 2026-04-27 19:49 | 22.97629 | -83.15709 | 23638 ft | 424 kts | 259° |
| 2026-04-27 19:50 | 22.97044 | -83.18837 | 23866 ft | 425 kts | 259° |
| 2026-04-27 19:50 | 22.96456 | -83.21972 | 24090 ft | 426 kts | 259° |
| 2026-04-27 19:50 | 22.95866 | -83.25112 | 24307 ft | 427 kts | 259° |
| 2026-04-27 19:50 | 22.95275 | -83.28256 | 24582 ft | 426 kts | 259° |
| 2026-04-27 19:51 | 22.94686 | -83.31389 | 24855 ft | 425 kts | 259° |
| 2026-04-27 19:51 | 22.94098 | -83.34507 | 25199 ft | 422 kts | 259° |
| 2026-04-27 19:51 | 22.93511 | -83.37622 | 25486 ft | 421 kts | 259° |
| 2026-04-27 19:51 | 22.92926 | -83.40720 | 25769 ft | 420 kts | 259° |
| 2026-04-27 19:52 | 22.92341 | -83.43814 | 26062 ft | 419 kts | 259° |
| 2026-04-27 19:52 | 22.91952 | -83.45871 | 26261 ft | 418 kts | 259° |
| 2026-04-27 19:52 | 22.91175 | -83.49971 | 26655 ft | 417 kts | 259° |
| 2026-04-27 19:52 | 22.90592 | -83.53047 | 26804 ft | 420 kts | 260° |
| 2026-04-27 19:53 | 22.89417 | -83.59234 | 27264 ft | 420 kts | 260° |
| 2026-04-27 19:53 | 22.88829 | -83.62326 | 27537 ft | 419 kts | 260° |
| 2026-04-27 19:53 | 22.88241 | -83.65413 | 27817 ft | 418 kts | 260° |
| 2026-04-27 19:54 | 22.87655 | -83.68486 | 28096 ft | 417 kts | 260° |
| 2026-04-27 19:54 | 22.87069 | -83.71553 | 28371 ft | 416 kts | 260° |
| 2026-04-27 19:54 | 22.86484 | -83.74614 | 28645 ft | 415 kts | 260° |
| 2026-04-27 19:54 | 22.85900 | -83.77669 | 28912 ft | 414 kts | 260° |
| 2026-04-27 19:55 | 22.85317 | -83.80711 | 29175 ft | 413 kts | 260° |
| 2026-04-27 19:55 | 22.84734 | -83.83751 | 29439 ft | 412 kts | 260° |
| 2026-04-27 19:55 | 22.84153 | -83.86779 | 29695 ft | 411 kts | 260° |
| 2026-04-27 19:55 | 22.83573 | -83.89798 | 29947 ft | 410 kts | 260° |
| 2026-04-27 19:56 | 22.82994 | -83.92810 | 30193 ft | 409 kts | 260° |
| 2026-04-27 19:56 | 22.82416 | -83.95815 | 30433 ft | 408 kts | 260° |
| 2026-04-27 19:56 | 22.81838 | -83.98814 | 30673 ft | 407 kts | 260° |
| 2026-04-27 19:56 | 22.81261 | -84.01807 | 30907 ft | 406 kts | 259° |
| 2026-04-27 19:57 | 22.80685 | -84.04791 | 31137 ft | 405 kts | 259° |
| 2026-04-27 19:57 | 22.80109 | -84.07768 | 31364 ft | 404 kts | 259° |
| 2026-04-27 19:57 | 22.79535 | -84.10738 | 31594 ft | 403 kts | 259° |
| 2026-04-27 19:57 | 22.78962 | -84.13700 | 31828 ft | 402 kts | 259° |
| 2026-04-27 19:58 | 22.78389 | -84.16656 | 31997 ft | 402 kts | 259° |
| 2026-04-27 19:58 | 22.77813 | -84.19623 | 32042 ft | 405 kts | 259° |
| 2026-04-27 19:58 | 22.76654 | -84.25594 | 32053 ft | 407 kts | 259° |
| 2026-04-27 19:59 | 22.75491 | -84.31566 | 32051 ft | 405 kts | 259° |
| 2026-04-27 19:59 | 22.74334 | -84.37494 | 32050 ft | 402 kts | 259° |
| 2026-04-27 20:00 | 22.73181 | -84.43392 | 32050 ft | 401 kts | 259° |
| 2026-04-27 20:00 | 22.72028 | -84.49277 | 32051 ft | 400 kts | 259° |
| 2026-04-27 20:01 | 22.70875 | -84.55150 | 32052 ft | 400 kts | 260° |
| 2026-04-27 20:01 | 22.69720 | -84.61025 | 32052 ft | 400 kts | 260° |
| 2026-04-27 20:02 | 22.68563 | -84.66897 | 32053 ft | 400 kts | 260° |
| 2026-04-27 20:02 | 22.67403 | -84.72772 | 32053 ft | 400 kts | 260° |
| 2026-04-27 20:03 | 22.66240 | -84.78652 | 32053 ft | 400 kts | 260° |
| 2026-04-27 20:03 | 22.65075 | -84.84526 | 32052 ft | 400 kts | 260° |
| 2026-04-27 20:04 | 22.63907 | -84.90405 | 32052 ft | 400 kts | 260° |
| 2026-04-27 20:04 | 22.62933 | -84.95301 | 32052 ft | 400 kts | 259° |
| 2026-04-27 20:05 | 22.61566 | -85.02154 | 32053 ft | 400 kts | 259° |
| 2026-04-27 20:05 | 22.59681 | -85.07806 | 32042 ft | 408 kts | 241° |
| 2026-04-27 20:06 | 22.56313 | -85.12785 | 32059 ft | 412 kts | 237° |
| 2026-04-27 20:06 | 22.52876 | -85.17731 | 32055 ft | 412 kts | 237° |
| 2026-04-27 20:07 | 22.49444 | -85.22666 | 32052 ft | 411 kts | 237° |
| 2026-04-27 20:07 | 22.46015 | -85.27595 | 32050 ft | 412 kts | 237° |
| 2026-04-27 20:08 | 22.42561 | -85.32555 | 32055 ft | 416 kts | 237° |
| 2026-04-27 20:08 | 22.39087 | -85.37540 | 32054 ft | 417 kts | 237° |
| 2026-04-27 20:09 | 22.35607 | -85.42528 | 32053 ft | 416 kts | 236° |
| 2026-04-27 20:09 | 22.32134 | -85.47501 | 32052 ft | 415 kts | 237° |
| 2026-04-27 20:10 | 22.28666 | -85.52462 | 32053 ft | 414 kts | 237° |
| 2026-04-27 20:10 | 22.25211 | -85.57401 | 32051 ft | 413 kts | 237° |
| 2026-04-27 20:11 | 22.21780 | -85.62297 | 31521 ft | 404 kts | 237° |
| 2026-04-27 20:11 | 22.20091 | -85.64708 | 30648 ft | 405 kts | 237° |
| 2026-04-27 20:11 | 22.18401 | -85.67119 | 29960 ft | 402 kts | 236° |
| 2026-04-27 20:12 | 22.16729 | -85.69503 | 29372 ft | 399 kts | 236° |
| 2026-04-27 20:12 | 22.15613 | -85.71095 | 28976 ft | 403 kts | 236° |
| 2026-04-27 20:12 | 22.13325 | -85.74361 | 28145 ft | 413 kts | 236° |
| 2026-04-27 20:12 | 22.11607 | -85.76805 | 27508 ft | 407 kts | 236° |
| 2026-04-27 20:13 | 22.09897 | -85.79240 | 26897 ft | 413 kts | 236° |
| 2026-04-27 20:13 | 22.08147 | -85.81734 | 26262 ft | 423 kts | 236° |
| 2026-04-27 20:13 | 22.06386 | -85.84237 | 25611 ft | 417 kts | 236° |
| 2026-04-27 20:13 | 22.04645 | -85.86710 | 24961 ft | 417 kts | 236° |
| 2026-04-27 20:14 | 22.02872 | -85.89232 | 24329 ft | 430 kts | 236° |
| 2026-04-27 20:14 | 22.01079 | -85.91778 | 23667 ft | 423 kts | 236° |
| 2026-04-27 20:14 | 21.99318 | -85.94273 | 23027 ft | 416 kts | 235° |
| 2026-04-27 20:14 | 21.97581 | -85.96736 | 22395 ft | 416 kts | 235° |
| 2026-04-27 20:15 | 21.95680 | -85.99099 | 21673 ft | 422 kts | 224° |
| 2026-04-27 20:15 | 21.93371 | -86.00992 | 21117 ft | 414 kts | 221° |
| 2026-04-27 20:15 | 21.91233 | -86.03005 | 20509 ft | 406 kts | 225° |
| 2026-04-27 20:15 | 21.89139 | -86.05046 | 19885 ft | 410 kts | 225° |
| 2026-04-27 20:16 | 21.87032 | -86.07092 | 19259 ft | 406 kts | 224° |
| 2026-04-27 20:16 | 21.84951 | -86.09098 | 18643 ft | 400 kts | 224° |
| 2026-04-27 20:16 | 21.82892 | -86.11072 | 18039 ft | 395 kts | 224° |
| 2026-04-27 20:16 | 21.80849 | -86.13023 | 17444 ft | 395 kts | 224° |
| 2026-04-27 20:17 | 21.78796 | -86.14977 | 16840 ft | 393 kts | 224° |
| 2026-04-27 20:17 | 21.76764 | -86.16906 | 16244 ft | 388 kts | 224° |
| 2026-04-27 20:17 | 21.74762 | -86.18802 | 15659 ft | 383 kts | 223° |
| 2026-04-27 20:17 | 21.73430 | -86.20061 | 15273 ft | 382 kts | 223° |
| 2026-04-27 20:18 | 21.70761 | -86.22583 | 14491 ft | 383 kts | 223° |
| 2026-04-27 20:18 | 21.68778 | -86.24452 | 13914 ft | 378 kts | 223° |
| 2026-04-27 20:18 | 21.66805 | -86.26285 | 13335 ft | 374 kts | 221° |
| 2026-04-27 20:18 | 21.64937 | -86.28178 | 12714 ft | 368 kts | 232° |
| 2026-04-27 20:19 | 21.63627 | -86.30499 | 12027 ft | 363 kts | 250° |
| 2026-04-27 20:19 | 21.62833 | -86.33055 | 11433 ft | 360 kts | 249° |
| 2026-04-27 20:19 | 21.61813 | -86.35487 | 10862 ft | 356 kts | 245° |
| 2026-04-27 20:19 | 21.60770 | -86.37876 | 10304 ft | 352 kts | 245° |
| 2026-04-27 20:20 | 21.59742 | -86.40233 | 9743 ft | 346 kts | 245° |
| 2026-04-27 20:20 | 21.58730 | -86.42547 | 9181 ft | 341 kts | 245° |
| 2026-04-27 20:20 | 21.57726 | -86.44825 | 8620 ft | 335 kts | 245° |
| 2026-04-27 20:20 | 21.56744 | -86.47067 | 8061 ft | 330 kts | 245° |
| 2026-04-27 20:21 | 21.55778 | -86.49283 | 7495 ft | 326 kts | 244° |
| 2026-04-27 20:21 | 21.54824 | -86.51473 | 6927 ft | 323 kts | 244° |
| 2026-04-27 20:21 | 21.53882 | -86.53639 | 6365 ft | 319 kts | 245° |
| 2026-04-27 20:21 | 21.52955 | -86.55777 | 5805 ft | 315 kts | 245° |
| 2026-04-27 20:22 | 21.52039 | -86.57896 | 5245 ft | 312 kts | 244° |
| 2026-04-27 20:22 | 21.51136 | -86.59990 | 4687 ft | 308 kts | 244° |
| 2026-04-27 20:22 | 21.50245 | -86.62062 | 4132 ft | 305 kts | 244° |
| 2026-04-27 20:22 | 21.49363 | -86.64114 | 3578 ft | 302 kts | 244° |
| 2026-04-27 20:23 | 21.48491 | -86.66144 | 3026 ft | 299 kts | 244° |
| 2026-04-27 20:23 | 21.47626 | -86.68159 | 2473 ft | 297 kts | 244° |
| 2026-04-27 20:23 | 21.47053 | -86.69494 | 2143 ft | 294 kts | 244° |
| 2026-04-27 20:23 | 21.45951 | -86.72064 | 1951 ft | 277 kts | 244° |
| 2026-04-27 20:24 | 21.45157 | -86.73917 | 1938 ft | 272 kts | 243° |
| 2026-04-27 20:24 | 21.44369 | -86.75752 | 1938 ft | 270 kts | 244° |
| 2026-04-27 20:24 | 21.43589 | -86.77571 | 1938 ft | 269 kts | 243° |
| 2026-04-27 20:24 | 21.42806 | -86.79395 | 1944 ft | 269 kts | 243° |
| 2026-04-27 20:25 | 21.42026 | -86.81212 | 1945 ft | 268 kts | 244° |
| 2026-04-27 20:25 | 21.41250 | -86.83019 | 1945 ft | 267 kts | 243° |
| 2026-04-27 20:25 | 21.40477 | -86.84821 | 1947 ft | 266 kts | 244° |
| 2026-04-27 20:25 | 21.39704 | -86.86621 | 1946 ft | 267 kts | 243° |
| 2026-04-27 20:26 | 21.38927 | -86.88429 | 1948 ft | 267 kts | 244° |
| 2026-04-27 20:26 | 21.38153 | -86.90233 | 1948 ft | 266 kts | 243° |
| 2026-04-27 20:26 | 21.37383 | -86.92026 | 1949 ft | 265 kts | 243° |
| 2026-04-27 20:26 | 21.36609 | -86.93826 | 1950 ft | 267 kts | 243° |
| 2026-04-27 20:27 | 21.35833 | -86.95631 | 1951 ft | 266 kts | 244° |
| 2026-04-27 20:27 | 21.35066 | -86.97415 | 1946 ft | 263 kts | 244° |
| 2026-04-27 20:27 | 21.34308 | -86.99180 | 1942 ft | 261 kts | 243° |
| 2026-04-27 20:27 | 21.33553 | -87.00934 | 1942 ft | 259 kts | 243° |
| 2026-04-27 20:28 | 21.32800 | -87.02683 | 1944 ft | 258 kts | 243° |
| 2026-04-27 20:28 | 21.32050 | -87.04427 | 1944 ft | 258 kts | 243° |
| 2026-04-27 20:28 | 21.31303 | -87.06161 | 1945 ft | 256 kts | 243° |
| 2026-04-27 20:28 | 21.30807 | -87.07315 | 1946 ft | 256 kts | 243° |
| 2026-04-27 20:29 | 21.29806 | -87.09619 | 1945 ft | 256 kts | 241° |
| 2026-04-27 20:29 | 21.28681 | -87.10979 | 1917 ft | 240 kts | 212° |
| 2026-04-27 20:29 | 21.27309 | -87.11949 | 1944 ft | 233 kts | 211° |
| 2026-04-27 20:29 | 21.25988 | -87.12871 | 1944 ft | 225 kts | 211° |
| 2026-04-27 20:30 | 21.24692 | -87.13775 | 1936 ft | 218 kts | 211° |
| 2026-04-27 20:30 | 21.23448 | -87.14644 | 1933 ft | 209 kts | 211° |
| 2026-04-27 20:30 | 21.22226 | -87.15417 | 1904 ft | 201 kts | 197° |
| 2026-04-27 20:30 | 21.20942 | -87.15331 | 1861 ft | 181 kts | 151° |
| 2026-04-27 20:31 | 21.20062 | -87.14427 | 1945 ft | 176 kts | 126° |
| 2026-04-27 20:31 | 21.19384 | -87.13367 | 1980 ft | 174 kts | 123° |
| 2026-04-27 20:31 | 21.18721 | -87.12291 | 1979 ft | 173 kts | 123° |
| 2026-04-27 20:31 | 21.18068 | -87.11226 | 1962 ft | 172 kts | 123° |
| 2026-04-27 20:32 | 21.17421 | -87.10159 | 1952 ft | 171 kts | 123° |
| 2026-04-27 20:32 | 21.16775 | -87.09096 | 1949 ft | 170 kts | 123° |
| 2026-04-27 20:32 | 21.16154 | -87.08024 | 1944 ft | 169 kts | 117° |
| 2026-04-27 20:32 | 21.15671 | -87.06880 | 1944 ft | 169 kts | 113° |
| 2026-04-27 20:33 | 21.15221 | -87.05747 | 1980 ft | 163 kts | 114° |
| 2026-04-27 20:33 | 21.14722 | -87.04674 | 1982 ft | 159 kts | 118° |
| 2026-04-27 20:33 | 21.14194 | -87.03662 | 1953 ft | 153 kts | 120° |
| 2026-04-27 20:33 | 21.13649 | -87.02688 | 1931 ft | 152 kts | 121° |
| 2026-04-27 20:34 | 21.13092 | -87.01740 | 1914 ft | 151 kts | 122° |
| 2026-04-27 20:34 | 21.12518 | -87.00799 | 1897 ft | 151 kts | 123° |
| 2026-04-27 20:34 | 21.11935 | -86.99872 | 1878 ft | 151 kts | 124° |
| 2026-04-27 20:34 | 21.11342 | -86.98948 | 1862 ft | 150 kts | 124° |
| 2026-04-27 20:35 | 21.10743 | -86.98032 | 1843 ft | 151 kts | 124° |
| 2026-04-27 20:35 | 21.10139 | -86.97120 | 1823 ft | 151 kts | 125° |
| 2026-04-27 20:35 | 21.09511 | -86.96179 | 1715 ft | 163 kts | 125° |
| 2026-04-27 20:35 | 21.08883 | -86.95246 | 1478 ft | 147 kts | 125° |
| 2026-04-27 20:36 | 21.08286 | -86.94364 | 1264 ft | 148 kts | 126° |
| 2026-04-27 20:36 | 21.07670 | -86.93456 | 1088 ft | 153 kts | 126° |
| 2026-04-27 20:36 | 21.07044 | -86.92533 | 882 ft | 154 kts | 126° |
| 2026-04-27 20:36 | 21.06415 | -86.91608 | 645 ft | 155 kts | 126° |
| 2026-04-27 20:37 | 21.05778 | -86.90669 | 401 ft | 156 kts | 125° |
| 2026-04-27 20:37 | 21.05152 | -86.89741 | 208 ft | 151 kts | 125° |
| 2026-04-27 20:37 | 21.04552 | -86.88878 | 45 ft | 141 kts | 124° |
| 2026-04-27 20:37 | 21.03996 | -86.88068 | 29 ft | 122 kts | 123° |
| 2026-04-27 20:38 | 21.03643 | -86.87537 | 29 ft | 50 kts | 124° |
| 2026-04-27 20:38 | 21.03528 | -86.87364 | 29 ft | 20 kts | 125° |
| 2026-04-27 20:38 | 21.03505 | -86.87303 | 29 ft | 1 kts | 67° |
| 2026-04-27 20:38 | 21.03515 | -86.87292 | 29 ft | 4 kts | 27° |
| 2026-04-27 20:39 | 21.03555 | -86.87300 | 29 ft | 8 kts | 337° |
| 2026-04-27 20:39 | 21.03603 | -86.87321 | 29 ft | 6 kts | 337° |
| 2026-04-27 20:39 | 21.03638 | -86.87337 | 29 ft | 5 kts | 337° |
| 2026-04-27 20:39 | 21.03662 | -86.87348 | 29 ft | 3 kts | 336° |
| 2026-04-27 20:40 | 21.03679 | -86.87356 | 29 ft | 3 kts | 336° |
| 2026-04-27 20:40 | 21.03708 | -86.87369 | 29 ft | 7 kts | 336° |
| 2026-04-27 20:40 | 21.03767 | -86.87398 | 29 ft | 10 kts | 336° |
| 2026-04-27 20:40 | 21.03820 | -86.87386 | 29 ft | 6 kts | 20° |
| 2026-04-27 20:41 | 21.03853 | -86.87384 | 29 ft | 4 kts | 8° |
| 2026-04-27 20:41 | 21.03874 | -86.87373 | 29 ft | 3 kts | 31° |
| 2026-04-27 20:41 | 21.03887 | -86.87364 | 29 ft | 3 kts | 34° |
| 2026-04-27 20:41 | 21.03903 | -86.87352 | 29 ft | 2 kts | 35° |
| 2026-04-27 20:42 | 21.03910 | -86.87347 | 29 ft | 0 kts | 35° |